Time;durP1;ratioP1;P1;durP2;ratioP2;P2;SDS_P1;SDS_P2;PMS_P1;PMS_P2;Temp;Humidity;BMP_temperature;BMP_pressure;BME280_temperature;BME280_humidity;BME280_pressure;Samples;Min_cycle;Max_cycle;Signal;HPM_P1;HPM_P2
2021/08/23 09:14:53;;;;;;;35.05;24.30;;;;;;;;;;5090989;27;20529;-77
2021/08/23 09:17:23;;;;;;;41.22;25.98;;;;;;;;;;5090900;28;20179;-78
2021/08/23 09:19:59;;;;;;;35.20;22.50;;;;;;;;;;5089522;28;20160;-78
2021/08/23 09:22:26;;;;;;;31.23;23.95;;;;;;;;;;5089526;28;20171;-78
2021/08/23 09:24:52;;;;;;;32.03;22.40;;;;;;;;;;5090773;28;20164;-78
2021/08/23 09:27:18;;;;;;;31.45;23.30;;;;;;;;;;5090693;28;20246;-79
2021/08/23 09:29:54;;;;;;;35.42;24.90;;;;;;;;;;5090541;28;20203;-79
2021/08/23 09:32:20;;;;;;;43.38;24.95;;;;;;;;;;5089189;28;20222;-78
2021/08/23 09:34:47;;;;;;;31.38;25.25;;;;;;;;;;5090492;28;20175;-78
2021/08/23 09:37:20;;;;;;;37.05;27.38;;;;;;;;;;5090689;28;20534;-78
2021/08/23 09:39:46;;;;;;;36.33;28.10;;;;;;;;;;5090467;28;20190;-78
2021/08/23 09:42:14;;;;;;;34.72;26.15;;;;;;;;;;5090399;28;20175;-76
2021/08/23 09:44:40;;;;;;;31.80;24.95;;;;;;;;;;5090324;28;20160;-76
2021/08/23 09:47:06;;;;;;;25.58;21.50;;;;;;;;;;5090316;28;20522;-76
2021/08/23 09:49:37;;;;;;;28.17;23.02;;;;;;;;;;5090277;28;20228;-76
2021/08/23 09:52:03;;;;;;;34.78;24.77;;;;;;;;;;5090173;28;20222;-76
2021/08/23 09:54:29;;;;;;;34.55;26.50;;;;;;;;;;5090114;28;20203;-76
2021/08/23 09:56:56;;;;;;;33.92;25.60;;;;;;;;;;5090074;28;20574;-76
2021/08/23 09:59:26;;;;;;;31.38;24.05;;;;;;;;;;5088801;28;20236;-76
2021/08/23 10:01:53;;;;;;;26.77;22.65;;;;;;;;;;5088705;28;20171;-76
2021/08/23 10:04:20;;;;;;;30.80;24.58;;;;;;;;;;5089958;28;20172;-76
2021/08/23 10:06:46;;;;;;;31.70;24.42;;;;;;;;;;5089937;28;20202;-76
2021/08/23 10:09:17;;;;;;;32.00;24.58;;;;;;;;;;5089784;28;20241;-76
2021/08/23 10:11:43;;;;;;;35.38;24.13;;;;;;;;;;5089828;28;20237;-76
2021/08/23 10:14:09;;;;;;;30.95;23.83;;;;;;;;;;5089450;28;20277;-76
2021/08/23 10:16:38;;;;;;;31.48;24.48;;;;;;;;;;5088458;28;20172;-76
2021/08/23 10:19:09;;;;;;;33.10;23.73;;;;;;;;;;5089616;28;20661;-76
2021/08/23 10:21:36;;;;;;;28.88;22.25;;;;;;;;;;5089653;28;20263;-75
2021/08/23 10:24:02;;;;;;;30.33;23.20;;;;;;;;;;5086312;28;20203;-77
2021/08/23 10:26:37;;;;;;;29.98;21.48;;;;;;;;;;5075917;28;20168;-76
2021/08/23 10:29:07;;;;;;;29.52;20.90;;;;;;;;;;5076087;28;20210;-76
2021/08/23 10:31:37;;;;;;;22.60;18.02;;;;;;;;;;5075962;28;20164;-75
2021/08/23 10:34:29;;;;;;;23.90;20.02;;;;;;;;;;5075764;28;20210;-75
2021/08/23 10:36:55;;;;;;;27.75;21.27;;;;;;;;;;5075594;28;20215;-75
2021/08/23 10:39:23;;;;;;;33.58;24.25;;;;;;;;;;5075862;28;20175;-75
2021/08/23 10:41:50;;;;;;;29.92;24.08;;;;;;;;;;5074523;28;20172;-76
2021/08/23 10:44:30;;;;;;;31.42;23.80;;;;;;;;;;5074430;28;20176;-75
2021/08/23 10:47:06;;;;;;;27.95;22.73;;;;;;;;;;5075731;28;20168;-76
2021/08/23 10:49:46;;;;;;;29.27;23.15;;;;;;;;;;5075645;28;20176;-77
2021/08/23 10:52:18;;;;;;;26.52;21.20;;;;;;;;;;5074412;28;20258;-76
2021/08/23 10:54:47;;;;;;;26.92;21.08;;;;;;;;;;5075592;28;20176;-75
2021/08/23 10:57:13;;;;;;;26.48;19.92;;;;;;;;;;5075583;28;20640;-75
2021/08/23 10:59:44;;;;;;;23.63;20.50;;;;;;;;;;5075463;28;20168;-75
2021/08/23 11:02:32;;;;;;;23.85;19.27;;;;;;;;;;5075454;28;20164;-75
2021/08/23 11:05:06;;;;;;;24.67;19.50;;;;;;;;;;5075396;28;20172;-76
2021/08/23 11:07:32;;;;;;;25.27;17.95;;;;;;;;;;5074129;28;20174;-75
2021/08/23 11:10:09;;;;;;;21.25;17.42;;;;;;;;;;5075286;28;20317;-75
2021/08/23 11:12:41;;;;;;;18.25;15.25;;;;;;;;;;5073634;28;20306;-76
2021/08/23 11:15:19;;;;;;;17.15;15.27;;;;;;;;;;5075221;28;20540;-76
2021/08/23 11:17:47;;;;;;;15.45;13.90;;;;;;;;;;5075228;28;20583;-75
2021/08/23 11:20:17;;;;;;;16.38;14.13;;;;;;;;;;5075182;28;20509;-75
2021/08/23 11:22:49;;;;;;;16.13;14.43;;;;;;;;;;5074985;28;20549;-76
2021/08/23 11:25:15;;;;;;;15.40;13.20;;;;;;;;;;5075033;28;20652;-76
2021/08/23 11:27:41;;;;;;;14.43;12.38;;;;;;;;;;5074943;28;20164;-75
2021/08/23 11:30:07;;;;;;;13.05;11.75;;;;;;;;;;5074886;28;20633;-75
2021/08/23 11:32:33;;;;;;;12.98;11.68;;;;;;;;;;5074740;28;20192;-75
2021/08/23 11:35:00;;;;;;;12.95;11.75;;;;;;;;;;5074860;28;20164;-75
2021/08/23 11:37:27;;;;;;;12.23;10.52;;;;;;;;;;5072457;28;20178;-75
2021/08/23 11:40:08;;;;;;;12.88;11.57;;;;;;;;;;5074643;28;20526;-76
2021/08/23 11:42:35;;;;;;;12.63;11.23;;;;;;;;;;5074522;28;20214;-75
2021/08/23 11:45:01;;;;;;;15.63;11.93;;;;;;;;;;5074636;28;20195;-76
2021/08/23 11:47:31;;;;;;;16.95;12.25;;;;;;;;;;5074513;28;20174;-75
2021/08/23 11:49:57;;;;;;;13.48;12.27;;;;;;;;;;5073174;28;20202;-75
2021/08/23 11:52:24;;;;;;;14.02;11.98;;;;;;;;;;5073096;28;20255;-75
2021/08/23 11:54:51;;;;;;;13.02;11.88;;;;;;;;;;5073106;28;20258;-75
2021/08/23 11:57:18;;;;;;;21.13;15.07;;;;;;;;;;5073077;28;20160;-75
2021/08/23 11:59:57;;;;;;;16.13;14.52;;;;;;;;;;5074258;28;20568;-75
2021/08/23 12:02:27;;;;;;;18.67;15.00;;;;;;;;;;5074145;28;20191;-75
2021/08/23 12:04:53;;;;;;;17.05;15.05;;;;;;;;;;5074189;28;20166;-75
2021/08/23 12:07:19;;;;;;;15.57;13.48;;;;;;;;;;5074133;28;20163;-75
2021/08/23 12:09:45;;;;;;;22.13;16.15;;;;;;;;;;5074045;28;20167;-75
2021/08/23 12:12:21;;;;;;;15.95;14.45;;;;;;;;;;5074053;28;20171;-75
2021/08/23 12:14:56;;;;;;;21.13;16.38;;;;;;;;;;5074063;28;20271;-75
2021/08/23 12:17:29;;;;;;;20.77;16.30;;;;;;;;;;5072674;28;20616;-75
2021/08/23 12:20:08;;;;;;;16.25;14.55;;;;;;;;;;5072649;28;20191;-75
2021/08/23 12:22:33;;;;;;;14.63;13.13;;;;;;;;;;5073852;28;20767;-75
2021/08/23 12:25:01;;;;;;;15.35;13.23;;;;;;;;;;5073868;28;20250;-75
2021/08/23 12:27:27;;;;;;;14.27;12.85;;;;;;;;;;5073805;28;20170;-75
2021/08/23 12:29:53;;;;;;;18.08;13.63;;;;;;;;;;5072502;28;20176;-75
2021/08/23 12:32:19;;;;;;;16.40;13.60;;;;;;;;;;5073713;28;20180;-75
2021/08/23 12:34:47;;;;;;;15.23;12.60;;;;;;;;;;5073719;28;20643;-75
2021/08/23 12:37:13;;;;;;;16.08;13.85;;;;;;;;;;5073813;28;20518;-76
2021/08/23 12:39:40;;;;;;;17.42;14.32;;;;;;;;;;5073636;28;20164;-75
2021/08/23 12:42:09;;;;;;;17.92;14.30;;;;;;;;;;5072281;28;20195;-75
2021/08/23 12:44:35;;;;;;;16.30;14.85;;;;;;;;;;5073476;28;20269;-76
2021/08/23 12:47:00;;;;;;;20.08;16.15;;;;;;;;;;5073423;28;20172;-76
2021/08/23 12:49:27;;;;;;;18.92;17.05;;;;;;;;;;5073397;28;20164;-75
2021/08/23 12:51:53;;;;;;;18.25;16.40;;;;;;;;;;5073468;28;20174;-75
2021/08/23 12:54:20;;;;;;;19.48;17.15;;;;;;;;;;5073490;28;20172;-75
2021/08/23 12:56:46;;;;;;;19.95;17.17;;;;;;;;;;5072115;28;20171;-75
2021/08/23 12:59:12;;;;;;;22.38;16.83;;;;;;;;;;5072068;28;20211;-75
2021/08/23 13:01:38;;;;;;;19.10;17.27;;;;;;;;;;5073436;28;20195;-76
2021/08/23 13:04:05;;;;;;;17.65;15.75;;;;;;;;;;5073251;28;20626;-75
2021/08/23 13:06:31;;;;;;;25.38;17.80;;;;;;;;;;5071980;28;20175;-75
2021/08/23 13:08:58;;;;;;;19.65;17.35;;;;;;;;;;5073328;28;20167;-75
2021/08/23 13:11:24;;;;;;;19.92;17.40;;;;;;;;;;5073170;28;20156;-75
2021/08/23 13:13:50;;;;;;;21.75;17.42;;;;;;;;;;5073069;28;20555;-75
2021/08/23 13:16:16;;;;;;;19.63;16.63;;;;;;;;;;5073225;28;20175;-76
2021/08/23 13:18:42;;;;;;;17.83;16.02;;;;;;;;;;5073153;28;20168;-75
2021/08/23 13:21:08;;;;;;;18.35;16.42;;;;;;;;;;5073215;28;20172;-75
2021/08/23 13:23:34;;;;;;;22.25;16.50;;;;;;;;;;5073046;28;20198;-75
2021/08/23 13:26:01;;;;;;;18.42;16.60;;;;;;;;;;5073137;28;20580;-75
2021/08/23 13:28:27;;;;;;;17.33;15.40;;;;;;;;;;5071829;28;20578;-75
2021/08/23 13:30:53;;;;;;;16.35;14.75;;;;;;;;;;5071770;28;20172;-75
2021/08/23 13:33:19;;;;;;;15.60;14.10;;;;;;;;;;5073004;28;20245;-75
2021/08/23 13:35:45;;;;;;;15.35;13.80;;;;;;;;;;5073045;28;20168;-75
2021/08/23 13:38:12;;;;;;;18.38;13.85;;;;;;;;;;5072983;28;20172;-75
2021/08/23 13:40:40;;;;;;;20.10;14.13;;;;;;;;;;5072951;28;20500;-76
2021/08/23 13:43:07;;;;;;;13.88;12.45;;;;;;;;;;5072926;28;20191;-75
2021/08/23 13:45:36;;;;;;;15.93;14.30;;;;;;;;;;5072945;28;20633;-75
2021/08/23 13:48:02;;;;;;;16.48;13.68;;;;;;;;;;5072870;28;20183;-75
2021/08/23 13:50:28;;;;;;;16.27;13.70;;;;;;;;;;5072912;28;20168;-75
2021/08/23 13:52:54;;;;;;;22.20;13.32;;;;;;;;;;5072027;28;20175;-76
2021/08/23 13:55:20;;;;;;;17.00;12.45;;;;;;;;;;5072912;28;20249;-75
2021/08/23 13:57:46;;;;;;;19.75;14.00;;;;;;;;;;5072777;28;20175;-76
2021/08/23 14:00:12;;;;;;;14.65;12.93;;;;;;;;;;5074466;28;20736;-75
2021/08/23 14:02:39;;;;;;;17.50;13.32;;;;;;;;;;5076499;28;20179;-75
2021/08/23 14:05:05;;;;;;;15.60;12.52;;;;;;;;;;5075198;28;20179;-75
2021/08/23 14:07:31;;;;;;;13.48;12.10;;;;;;;;;;5075099;28;20173;-75
2021/08/23 14:09:57;;;;;;;13.15;11.90;;;;;;;;;;5076345;28;20168;-75
2021/08/23 14:12:23;;;;;;;14.82;11.68;;;;;;;;;;5076210;28;20176;-75
2021/08/23 14:14:49;;;;;;;13.15;11.95;;;;;;;;;;5075090;28;20174;-75
2021/08/23 14:17:15;;;;;;;15.32;11.55;;;;;;;;;;5075039;28;20171;-75
2021/08/23 14:19:41;;;;;;;12.35;11.13;;;;;;;;;;5076362;28;20509;-75
2021/08/23 14:22:07;;;;;;;13.02;11.93;;;;;;;;;;5074890;28;20163;-75
2021/08/23 14:24:34;;;;;;;12.23;11.00;;;;;;;;;;5074834;28;20286;-75
2021/08/23 14:27:00;;;;;;;12.85;11.63;;;;;;;;;;5076137;28;20230;-75
2021/08/23 14:29:26;;;;;;;12.73;11.43;;;;;;;;;;5076117;28;20167;-75
2021/08/23 14:31:52;;;;;;;12.93;10.85;;;;;;;;;;5075938;28;20179;-75
2021/08/23 14:34:18;;;;;;;11.77;10.55;;;;;;;;;;5075989;28;20172;-75
2021/08/23 14:36:44;;;;;;;15.70;11.55;;;;;;;;;;5075889;28;20171;-75
2021/08/23 14:39:10;;;;;;;11.85;10.70;;;;;;;;;;5075806;28;20167;-75
2021/08/23 14:41:36;;;;;;;11.70;10.52;;;;;;;;;;5075776;28;20174;-75
2021/08/23 14:44:02;;;;;;;11.98;10.68;;;;;;;;;;5075659;28;20656;-75
2021/08/23 14:46:28;;;;;;;11.45;10.48;;;;;;;;;;5075616;28;20621;-75
2021/08/23 14:48:55;;;;;;;15.40;10.57;;;;;;;;;;5075590;28;20214;-75
2021/08/23 14:51:21;;;;;;;12.63;10.43;;;;;;;;;;5075489;28;20179;-75
2021/08/23 14:53:47;;;;;;;12.15;11.15;;;;;;;;;;5075517;28;20250;-75
2021/08/23 14:56:13;;;;;;;11.82;10.60;;;;;;;;;;5075520;28;20210;-75
2021/08/23 14:58:39;;;;;;;12.18;11.10;;;;;;;;;;5075539;28;20164;-75
2021/08/23 15:01:10;;;;;;;12.15;10.93;;;;;;;;;;5075510;28;20168;-75
2021/08/23 15:03:36;;;;;;;11.07;9.90;;;;;;;;;;5075359;28;20664;-75
2021/08/23 15:06:02;;;;;;;11.38;10.38;;;;;;;;;;5075309;28;20172;-75
2021/08/23 15:08:28;;;;;;;10.30;9.40;;;;;;;;;;5075319;28;20213;-75
2021/08/23 15:10:54;;;;;;;13.43;10.63;;;;;;;;;;5073862;28;20217;-75
2021/08/23 15:13:20;;;;;;;9.93;9.13;;;;;;;;;;5075012;28;20228;-75
2021/08/23 15:15:46;;;;;;;10.75;9.55;;;;;;;;;;5075226;28;20605;-75
2021/08/23 15:18:13;;;;;;;9.30;8.57;;;;;;;;;;5075109;28;20237;-75
2021/08/23 15:20:39;;;;;;;13.27;8.52;;;;;;;;;;5075087;28;20502;-75
2021/08/23 15:23:07;;;;;;;9.90;8.98;;;;;;;;;;5074981;28;20233;-75
2021/08/23 15:25:35;;;;;;;13.63;9.05;;;;;;;;;;5075014;28;20174;-75
2021/08/23 15:28:01;;;;;;;9.25;8.40;;;;;;;;;;5074931;28;20649;-75
2021/08/23 15:30:27;;;;;;;9.75;8.95;;;;;;;;;;5074925;28;20259;-75
2021/08/23 15:32:53;;;;;;;9.50;8.70;;;;;;;;;;5074703;28;20253;-75
2021/08/23 15:35:19;;;;;;;11.00;9.18;;;;;;;;;;5074834;28;20629;-75
2021/08/23 15:37:45;;;;;;;9.23;8.32;;;;;;;;;;5074750;28;20187;-75
2021/08/23 15:40:11;;;;;;;8.27;7.57;;;;;;;;;;5074659;28;20617;-75
2021/08/23 15:42:37;;;;;;;10.18;6.85;;;;;;;;;;5074663;28;20195;-75
2021/08/23 15:45:03;;;;;;;11.60;7.03;;;;;;;;;;5073381;28;20652;-75
2021/08/23 15:47:29;;;;;;;7.82;7.22;;;;;;;;;;5074520;28;20224;-75
2021/08/23 15:49:55;;;;;;;7.65;7.05;;;;;;;;;;5074503;28;20164;-75
2021/08/23 15:52:22;;;;;;;7.47;6.78;;;;;;;;;;5074488;28;20168;-75
2021/08/23 15:54:49;;;;;;;7.30;6.15;;;;;;;;;;5074391;28;20179;-75
2021/08/23 15:57:15;;;;;;;7.30;6.75;;;;;;;;;;5074368;28;20633;-75
2021/08/23 15:59:41;;;;;;;7.97;7.10;;;;;;;;;;5073063;28;20186;-75
2021/08/23 16:02:07;;;;;;;6.97;6.35;;;;;;;;;;5074235;28;20258;-75
2021/08/23 16:04:37;;;;;;;6.32;5.72;;;;;;;;;;5074113;28;20202;-75
2021/08/23 16:07:03;;;;;;;5.63;5.32;;;;;;;;;;5074192;28;20171;-75
2021/08/23 16:09:29;;;;;;;5.80;5.38;;;;;;;;;;5074082;28;20560;-75
2021/08/23 16:11:56;;;;;;;6.22;5.13;;;;;;;;;;5074083;28;20172;-75
2021/08/23 16:14:22;;;;;;;5.43;5.03;;;;;;;;;;5073906;28;20215;-75
2021/08/23 16:16:48;;;;;;;5.50;5.10;;;;;;;;;;5072731;28;20206;-75
2021/08/23 16:19:14;;;;;;;5.35;4.95;;;;;;;;;;5073935;28;20179;-75
2021/08/23 16:21:40;;;;;;;5.00;4.50;;;;;;;;;;5074184;28;20164;-75
2021/08/23 16:24:09;;;;;;;4.88;4.50;;;;;;;;;;5073801;28;20199;-75
2021/08/23 16:26:35;;;;;;;4.53;4.22;;;;;;;;;;5073876;28;20255;-75
2021/08/23 16:29:01;;;;;;;4.90;4.60;;;;;;;;;;5072512;28;20172;-75
2021/08/23 16:31:27;;;;;;;4.72;4.43;;;;;;;;;;5073762;28;20168;-75
2021/08/23 16:33:53;;;;;;;4.70;4.40;;;;;;;;;;5073832;28;20187;-75
2021/08/23 16:36:19;;;;;;;4.32;3.90;;;;;;;;;;5073973;28;20498;-75
2021/08/23 16:38:45;;;;;;;4.45;4.15;;;;;;;;;;5074038;28;20172;-75
2021/08/23 16:41:11;;;;;;;4.65;4.35;;;;;;;;;;5072526;28;20190;-75
2021/08/23 16:43:37;;;;;;;4.32;3.92;;;;;;;;;;5073644;28;20214;-75
2021/08/23 16:46:03;;;;;;;6.35;4.50;;;;;;;;;;5073693;28;20178;-76
2021/08/23 16:48:31;;;;;;;7.25;4.85;;;;;;;;;;5073509;28;20206;-75
2021/08/23 16:50:57;;;;;;;4.60;4.20;;;;;;;;;;5073679;28;20188;-76
2021/08/23 16:53:23;;;;;;;6.63;4.93;;;;;;;;;;5072166;28;20534;-76
2021/08/23 16:55:49;;;;;;;5.05;4.55;;;;;;;;;;5073492;28;20178;-76
2021/08/23 16:58:15;;;;;;;5.40;4.70;;;;;;;;;;5073444;28;20203;-73
2021/08/23 17:00:41;;;;;;;4.43;4.05;;;;;;;;;;5072101;28;20224;-74
2021/08/23 17:03:07;;;;;;;4.85;4.40;;;;;;;;;;5073412;28;20202;-75
2021/08/23 17:05:33;;;;;;;6.13;5.10;;;;;;;;;;5072093;28;20176;-75
2021/08/23 17:07:59;;;;;;;6.93;5.10;;;;;;;;;;5073302;28;20225;-75
2021/08/23 17:10:25;;;;;;;4.72;4.38;;;;;;;;;;5073341;28;20491;-75
2021/08/23 17:12:51;;;;;;;5.40;4.97;;;;;;;;;;5072919;28;20573;-75
2021/08/23 17:15:17;;;;;;;7.68;5.03;;;;;;;;;;5073035;28;20176;-75
2021/08/23 17:17:43;;;;;;;5.30;4.80;;;;;;;;;;5073009;28;20183;-75
2021/08/23 17:20:09;;;;;;;4.82;4.50;;;;;;;;;;5073031;28;20176;-75
2021/08/23 17:22:35;;;;;;;6.75;5.40;;;;;;;;;;5072998;28;20218;-76
2021/08/23 17:25:01;;;;;;;4.95;4.55;;;;;;;;;;5073033;28;20196;-76
2021/08/23 17:27:27;;;;;;;5.65;4.75;;;;;;;;;;5073008;28;20167;-76
2021/08/23 17:29:53;;;;;;;5.13;4.63;;;;;;;;;;5072242;28;20278;-75
2021/08/23 17:32:20;;;;;;;5.53;5.10;;;;;;;;;;5073201;28;20661;-75
2021/08/23 17:34:47;;;;;;;4.88;4.57;;;;;;;;;;5074180;28;20191;-76
2021/08/23 17:37:13;;;;;;;5.80;5.40;;;;;;;;;;5076954;28;20175;-75
2021/08/23 17:39:39;;;;;;;6.43;5.07;;;;;;;;;;5076779;28;20168;-75
2021/08/23 17:42:05;;;;;;;6.18;5.43;;;;;;;;;;5075466;28;20252;-75
2021/08/23 17:44:31;;;;;;;5.35;5.00;;;;;;;;;;5075361;28;20214;-75
2021/08/23 17:46:57;;;;;;;6.10;5.47;;;;;;;;;;5077198;28;20164;-75
2021/08/23 17:49:23;;;;;;;5.57;5.07;;;;;;;;;;5077266;28;20206;-76
2021/08/23 17:51:50;;;;;;;6.40;5.75;;;;;;;;;;5076830;28;20191;-75
2021/08/23 17:54:16;;;;;;;5.18;4.82;;;;;;;;;;5076929;28;20629;-75
2021/08/23 17:56:42;;;;;;;5.13;4.72;;;;;;;;;;5076671;28;20176;-75
2021/08/23 17:59:08;;;;;;;5.45;5.15;;;;;;;;;;5077875;28;20174;-75
2021/08/23 18:01:34;;;;;;;5.45;4.95;;;;;;;;;;5092447;28;20214;-74
2021/08/23 18:04:01;;;;;;;6.43;5.70;;;;;;;;;;5081581;28;20199;-74
2021/08/23 18:06:27;;;;;;;6.22;5.90;;;;;;;;;;5076361;28;20167;-74
2021/08/23 18:08:53;;;;;;;7.05;5.07;;;;;;;;;;5076305;28;20171;-74
2021/08/23 18:11:19;;;;;;;7.05;5.68;;;;;;;;;;5076246;28;20164;-74
2021/08/23 18:13:45;;;;;;;5.93;5.53;;;;;;;;;;5076004;28;20212;-74
2021/08/23 18:16:11;;;;;;;6.03;5.45;;;;;;;;;;5076216;28;20194;-74
2021/08/23 18:18:37;;;;;;;6.47;5.85;;;;;;;;;;5076087;28;20164;-74
2021/08/23 18:21:04;;;;;;;5.60;5.18;;;;;;;;;;5076129;28;20164;-74
2021/08/23 18:23:30;;;;;;;5.65;5.30;;;;;;;;;;5075967;28;20680;-74
2021/08/23 18:25:56;;;;;;;5.15;4.85;;;;;;;;;;5075945;28;20203;-74
2021/08/23 18:28:22;;;;;;;5.97;5.45;;;;;;;;;;5076011;28;20574;-74
2021/08/23 18:30:48;;;;;;;5.35;4.95;;;;;;;;;;5075926;28;20172;-74
